createdAt,value
2022-10-08T00:01:41.840Z,97946.44
2022-10-08T00:06:43.654Z,97943.09
2022-10-08T00:11:45.426Z,97938.56
2022-10-08T00:16:47.512Z,97948.78
2022-10-08T00:21:53.301Z,97938.44
2022-10-08T00:26:55.110Z,97930.69
2022-10-08T00:31:57.182Z,97933.63
2022-10-08T00:36:59.033Z,97927.97
2022-10-08T00:42:02.250Z,97922.44
2022-10-08T00:47:04.208Z,97914.66
2022-10-08T00:52:08.339Z,97908.03
2022-10-08T00:57:10.558Z,97902.84
2022-10-08T01:02:13.642Z,97891.69
2022-10-08T01:07:25.262Z,97888.22
2022-10-08T01:12:52.814Z,97883.81
2022-10-08T01:18:11.962Z,97885.63
2022-10-08T01:23:22.844Z,97886.41
2022-10-08T01:28:43.006Z,97876.41
2022-10-08T01:33:54.575Z,97862.94
2022-10-08T01:39:01.712Z,97859.56
2022-10-08T01:44:17.726Z,97856.47
2022-10-08T01:49:25.485Z,97853.44
2022-10-08T01:54:31.915Z,97853.38
2022-10-08T01:59:39.649Z,97848.69
2022-10-08T02:04:42.467Z,97849.06
2022-10-08T02:09:53.992Z,97848.28
2022-10-08T02:14:57.527Z,97845.56
2022-10-08T02:20:11.619Z,97843.28
2022-10-08T02:25:26.871Z,97839.50
2022-10-08T02:30:37.180Z,97838.81
2022-10-08T02:35:55.017Z,97847.50
2022-10-08T02:41:00.938Z,97848.16
2022-10-08T02:46:21.526Z,97849.47
2022-10-08T02:51:24.893Z,97847.84
2022-10-08T02:56:33.922Z,97857.84
2022-10-08T03:01:46.630Z,97853.16
2022-10-08T03:06:50.998Z,97851.38
2022-10-08T03:11:54.585Z,97854.59
2022-10-08T03:16:56.573Z,97846.91
2022-10-08T03:21:58.627Z,97863.94
2022-10-08T03:27:00.553Z,97868.78
2022-10-08T03:32:02.331Z,97868.91
2022-10-08T03:37:04.112Z,97870.25
2022-10-08T03:42:06.018Z,97865.59
2022-10-08T03:47:07.857Z,97870.84
2022-10-08T03:52:09.623Z,97871.63
2022-10-08T03:57:11.350Z,97867.28
2022-10-08T04:02:13.339Z,97881.53
2022-10-08T04:07:15.104Z,97885.59
2022-10-08T04:12:16.838Z,97868.59
2022-10-08T04:17:18.559Z,97871.50
2022-10-08T04:22:20.336Z,97870.97
2022-10-08T04:27:22.159Z,97867.97
2022-10-08T04:32:23.898Z,97866.81
2022-10-08T04:37:25.692Z,97866.09
2022-10-08T04:42:27.431Z,97861.09
2022-10-08T04:47:29.162Z,97860.28
2022-10-08T04:52:32.131Z,97868.31
2022-10-08T04:57:33.876Z,97874.25
2022-10-08T05:02:35.715Z,97870.88
2022-10-08T05:07:37.666Z,97864.19
2022-10-08T05:12:39.470Z,97872.75
2022-10-08T05:17:41.372Z,97879.09
2022-10-08T05:22:43.134Z,97881.78
2022-10-08T05:27:44.870Z,97880.69
2022-10-08T05:32:47.002Z,97892.91
2022-10-08T05:37:49.039Z,97891.91
2022-10-08T05:42:50.997Z,97904.25
2022-10-08T05:47:52.924Z,97900.13
2022-10-08T05:52:57.141Z,97904.28
2022-10-08T05:57:58.904Z,97908.78
2022-10-08T06:03:00.741Z,97918.31
2022-10-08T06:08:02.580Z,97927.53
2022-10-08T06:13:06.648Z,97934.03
2022-10-08T06:18:08.434Z,97950.38
2022-10-08T06:23:10.236Z,97946.03
2022-10-08T06:28:12.279Z,97959.25
2022-10-08T06:33:16.382Z,97965.53
2022-10-08T06:38:18.443Z,97958.13
2022-10-08T06:43:20.291Z,97966.09
2022-10-08T06:48:22.456Z,97976.28
2022-10-08T06:53:24.209Z,97975.19
2022-10-08T06:58:26.098Z,97979.66
2022-10-08T07:03:28.033Z,97967.63
2022-10-08T07:08:30.541Z,97982.44
2022-10-08T07:13:32.675Z,97978.59
2022-10-08T07:18:35.784Z,97993.13
2022-10-08T07:23:37.803Z,97985.03
2022-10-08T07:28:42.493Z,97991.22
2022-10-08T07:33:44.601Z,97992.72
2022-10-08T07:38:48.157Z,97996.53
2022-10-08T07:43:52.320Z,97989.47
2022-10-08T07:48:59.242Z,97990.72
2022-10-08T07:54:03.233Z,97991.34
2022-10-08T07:59:06.252Z,97987.66
2022-10-08T08:04:10.033Z,97979.97
2022-10-08T08:09:12.258Z,97980.38
2022-10-08T08:14:16.140Z,97984.00
2022-10-08T08:19:17.912Z,97986.28
2022-10-08T08:24:19.783Z,97992.94
2022-10-08T08:29:21.722Z,98000.59
2022-10-08T08:34:25.168Z,97996.75
2022-10-08T08:39:28.509Z,97996.19
2022-10-08T08:44:36.583Z,98009.47
2022-10-08T08:49:38.398Z,98010.84
2022-10-08T08:54:40.315Z,98010.88
2022-10-08T08:59:47.011Z,98031.06
2022-10-08T09:04:54.559Z,98040.75
2022-10-08T09:09:58.978Z,98042.53
2022-10-08T09:15:02.881Z,98040.38
2022-10-08T09:20:05.703Z,98060.03
2022-10-08T09:25:11.005Z,98053.06
2022-10-08T09:30:25.126Z,98064.28
2022-10-08T09:35:27.229Z,98059.69
2022-10-08T09:40:29.103Z,98068.56
2022-10-08T09:45:34.596Z,98070.59
2022-10-08T09:50:37.859Z,98076.59
2022-10-08T09:55:41.037Z,98076.97
2022-10-08T10:00:42.966Z,98078.94
2022-10-08T10:05:51.525Z,98084.06
2022-10-08T10:10:54.588Z,98084.38
2022-10-08T10:16:04.328Z,98085.22
2022-10-08T10:21:11.220Z,98076.16
2022-10-08T10:26:33.051Z,98080.63
2022-10-08T10:31:51.695Z,98085.09
2022-10-08T10:37:08.439Z,98079.81
2022-10-08T10:42:34.489Z,98068.72
2022-10-08T10:47:38.267Z,98064.53
2022-10-08T10:53:16.022Z,98074.06
2022-10-08T10:58:40.191Z,98072.56
2022-10-08T11:04:15.939Z,98066.09
2022-10-08T11:09:41.722Z,98075.25
2022-10-08T11:15:08.521Z,98076.97
2022-10-08T11:20:10.267Z,98074.53
2022-10-08T11:26:14.050Z,98060.63
2022-10-08T11:31:45.494Z,98080.25
2022-10-08T11:36:51.607Z,98069.56
2022-10-08T11:42:19.226Z,98076.16
2022-10-08T11:47:42.922Z,98070.63
2022-10-08T11:52:45.306Z,98062.56
2022-10-08T11:58:07.568Z,98065.28
2022-10-08T12:03:22.684Z,98053.28
2022-10-08T12:08:53.228Z,98058.00
2022-10-08T12:14:14.626Z,98064.47
2022-10-08T12:19:35.019Z,98062.06
2022-10-08T12:24:37.010Z,98060.94
2022-10-08T12:30:03.733Z,98057.19
2022-10-08T12:35:06.505Z,98053.78
2022-10-08T12:40:30.474Z,98054.19
2022-10-08T12:45:44.389Z,98055.84
2022-10-08T12:50:49.193Z,98055.88
2022-10-08T12:55:55.136Z,98056.50
2022-10-08T13:01:00.340Z,98053.72
2022-10-08T13:06:16.628Z,98060.69
2022-10-08T13:11:18.516Z,98074.16
2022-10-08T13:16:23.353Z,98070.69
2022-10-08T13:21:32.883Z,98080.88
2022-10-08T13:26:46.285Z,98085.41
2022-10-08T13:31:55.664Z,98093.97
2022-10-08T13:37:02.514Z,98102.13
2022-10-08T13:42:11.357Z,98106.34
2022-10-08T13:47:15.344Z,98110.97
2022-10-08T13:52:21.389Z,98114.44
2022-10-08T13:57:23.148Z,98115.44
2022-10-08T14:02:25.163Z,98124.72
2022-10-08T14:07:31.185Z,98125.03
2022-10-08T14:12:35.021Z,98124.13
2022-10-08T14:17:36.917Z,98134.38
2022-10-08T14:22:38.879Z,98141.88
2022-10-08T14:27:40.644Z,98143.28
2022-10-08T14:32:43.089Z,98166.09
2022-10-08T14:37:45.125Z,98147.56
2022-10-08T14:42:47.730Z,98160.28
2022-10-08T14:47:49.655Z,98162.22
2022-10-08T14:52:52.032Z,98167.09
2022-10-08T14:57:53.921Z,98172.03
2022-10-08T15:02:55.731Z,98173.25
2022-10-08T15:08:00.043Z,98168.59
2022-10-08T15:13:01.837Z,98171.78
2022-10-08T15:18:03.672Z,98177.81
2022-10-08T15:23:06.176Z,98182.03
2022-10-08T15:28:07.982Z,98189.06
2022-10-08T15:33:09.744Z,98194.41
2022-10-08T15:38:11.518Z,98201.53
2022-10-08T15:43:13.283Z,98202.56
2022-10-08T15:48:16.778Z,98202.66
2022-10-08T15:53:18.543Z,98215.56
2022-10-08T15:58:45.818Z,98227.75
2022-10-08T16:03:47.128Z,98239.81
2022-10-08T16:08:49.446Z,98230.69
2022-10-08T16:13:53.834Z,98235.13
2022-10-08T16:18:58.214Z,98242.81
2022-10-08T16:24:01.391Z,98250.31
2022-10-08T16:29:12.230Z,98259.66
2022-10-08T16:34:24.438Z,98270.41
2022-10-08T16:39:26.344Z,98287.22
2022-10-08T16:44:28.268Z,98287.34
2022-10-08T16:49:30.447Z,98291.41
2022-10-08T16:54:35.556Z,98302.47
2022-10-08T16:59:37.376Z,98314.66
2022-10-08T17:04:42.304Z,98321.16
2022-10-08T17:09:44.088Z,98332.88
2022-10-08T17:14:45.832Z,98329.47
2022-10-08T17:19:47.587Z,98345.88
2022-10-08T17:24:49.492Z,98338.56
2022-10-08T17:29:51.232Z,98341.63
2022-10-08T17:34:53.007Z,98353.31
2022-10-08T17:39:54.759Z,98365.75
2022-10-08T17:44:56.497Z,98364.56
2022-10-08T17:49:58.263Z,98378.72
2022-10-08T17:55:00.098Z,98384.38
2022-10-08T18:00:01.935Z,98387.31
2022-10-08T18:05:10.706Z,98395.28
2022-10-08T18:10:12.524Z,98416.44
2022-10-08T18:15:14.391Z,98429.88
2022-10-08T18:20:16.270Z,98427.91
2022-10-08T18:25:18.034Z,98424.13
2022-10-08T18:30:19.811Z,98431.81
2022-10-08T18:35:21.626Z,98432.88
2022-10-08T18:40:23.498Z,98431.59
2022-10-08T18:45:25.448Z,98453.16
2022-10-08T18:50:27.278Z,98461.94
2022-10-08T18:55:31.365Z,98467.00
2022-10-08T19:00:37.878Z,98475.88
2022-10-08T19:05:39.756Z,98481.59
2022-10-08T19:10:41.601Z,98480.16
2022-10-08T19:15:43.469Z,98481.72
2022-10-08T19:20:47.383Z,98483.00
2022-10-08T19:25:53.884Z,98494.56
2022-10-08T19:30:55.716Z,98505.22
2022-10-08T19:36:00.980Z,98516.00
2022-10-08T19:41:10.408Z,98523.88
2022-10-08T19:46:12.341Z,98524.44
2022-10-08T19:51:14.210Z,98526.63
2022-10-08T19:56:17.185Z,98527.19
2022-10-08T20:01:27.213Z,98535.09
2022-10-08T20:06:31.695Z,98542.56
2022-10-08T20:11:33.799Z,98554.13
2022-10-08T20:16:38.306Z,98552.38
2022-10-08T20:21:40.353Z,98559.47
2022-10-08T20:26:43.917Z,98566.81
2022-10-08T20:31:54.243Z,98571.69
2022-10-08T20:36:57.983Z,98578.06
2022-10-08T20:41:59.835Z,98590.84
2022-10-08T20:47:04.195Z,98591.09
2022-10-08T20:52:06.056Z,98589.31
2022-10-08T20:57:07.879Z,98592.41
2022-10-08T21:02:11.407Z,98591.72
2022-10-08T21:07:13.215Z,98604.59
2022-10-08T21:12:15.012Z,98608.50
2022-10-08T21:17:16.741Z,98607.78
2022-10-08T21:22:18.512Z,98611.94
2022-10-08T21:27:20.378Z,98612.50
2022-10-08T21:32:22.160Z,98609.59
2022-10-08T21:37:24.088Z,98603.56
2022-10-08T21:42:26.074Z,98618.28
2022-10-08T21:47:28.874Z,98625.28
2022-10-08T21:52:30.604Z,98628.81
2022-10-08T21:57:32.389Z,98626.16
2022-10-08T22:02:34.389Z,98628.78
2022-10-08T22:07:36.375Z,98631.41
2022-10-08T22:12:38.129Z,98627.84
2022-10-08T22:17:39.834Z,98634.41
2022-10-08T22:22:41.583Z,98640.47
2022-10-08T22:27:43.361Z,98649.16
2022-10-08T22:32:45.348Z,98650.84
2022-10-08T22:37:47.432Z,98656.97
2022-10-08T22:42:49.319Z,98654.84
2022-10-08T22:47:51.374Z,98659.31
2022-10-08T22:52:53.249Z,98668.69
2022-10-08T22:57:55.222Z,98663.03
2022-10-08T23:02:57.079Z,98664.81
2022-10-08T23:07:58.934Z,98663.16
2022-10-08T23:13:00.727Z,98662.00
2022-10-08T23:18:02.574Z,98673.03
2022-10-08T23:23:04.541Z,98667.75
2022-10-08T23:28:06.284Z,98673.88
2022-10-08T23:33:08.118Z,98673.28
2022-10-08T23:38:10.298Z,98683.81
2022-10-08T23:43:12.062Z,98685.94
2022-10-08T23:48:13.940Z,98684.63
2022-10-08T23:53:15.657Z,98691.09
2022-10-08T23:58:20.804Z,98686.41
